UAL154 PTKK-PGUM
Flight info
| Callsign | UAL154 |
|---|---|
| Flight time | 1h 28m |
| Altitude | 36000 |
| Route | TKK 08N152E 09N152E 1000N15130E 11N150E FIBSS |
| Aircraft | B738/M-SDE2E3FGHIRWXY/LB1 |
Departure
| Time | 2026-05-06 01:24 |
|---|---|
| Airport | Chuuk International Airport (PTKK) |
Arrival
| Time | 2026-05-06 02:52 |
|---|---|
| Airport | Antonio B. Won Pat International Airport (PGUM) |
| Time | Latitude | Longitude | Altitude | Speed | Heading |
|---|---|---|---|---|---|
| 2026-05-06 00:26 | 7.45823 | 151.84145 | 14 ft | 0 kts | 226° |
| 2026-05-06 01:15 | 7.45822 | 151.84143 | 23 ft | 3 kts | 232° |
| 2026-05-06 01:15 | 7.45830 | 151.84094 | 16 ft | 9 kts | 310° |
| 2026-05-06 01:15 | 7.45832 | 151.84091 | 15 ft | 0 kts | 314° |
| 2026-05-06 01:18 | 7.45833 | 151.84090 | 15 ft | 2 kts | 314° |
| 2026-05-06 01:18 | 7.45856 | 151.84069 | 14 ft | 0 kts | 320° |
| 2026-05-06 01:21 | 7.45870 | 151.84056 | 14 ft | 8 kts | 317° |
| 2026-05-06 01:21 | 7.45887 | 151.83997 | 15 ft | 9 kts | 261° |
| 2026-05-06 01:22 | 7.45852 | 151.83943 | 14 ft | 9 kts | 225° |
| 2026-05-06 01:22 | 7.45807 | 151.83897 | 14 ft | 9 kts | 225° |
| 2026-05-06 01:22 | 7.45763 | 151.83853 | 14 ft | 9 kts | 225° |
| 2026-05-06 01:22 | 7.45712 | 151.83797 | 14 ft | 14 kts | 229° |
| 2026-05-06 01:23 | 7.45669 | 151.83712 | 13 ft | 11 kts | 236° |
| 2026-05-06 01:23 | 7.45628 | 151.83728 | 12 ft | 9 kts | 84° |
| 2026-05-06 01:23 | 7.45679 | 151.83761 | 15 ft | 9 kts | 35° |
| 2026-05-06 01:23 | 7.45728 | 151.83810 | 15 ft | 20 kts | 46° |
| 2026-05-06 01:24 | 7.46053 | 151.84148 | 13 ft | 112 kts | 46° |
| 2026-05-06 01:24 | 7.46774 | 151.84912 | 112 ft | 180 kts | 46° |
| 2026-05-06 01:24 | 7.47657 | 151.85839 | 1129 ft | 183 kts | 45° |
| 2026-05-06 01:24 | 7.48845 | 151.86489 | 1832 ft | 214 kts | 13° |
| 2026-05-06 01:25 | 7.50415 | 151.86722 | 2232 ft | 236 kts | 13° |
| 2026-05-06 01:25 | 7.52066 | 151.87000 | 2955 ft | 242 kts | 13° |
| 2026-05-06 01:25 | 7.53736 | 151.87306 | 3682 ft | 245 kts | 14° |
| 2026-05-06 01:25 | 7.55414 | 151.87660 | 4421 ft | 249 kts | 16° |
| 2026-05-06 01:26 | 7.57116 | 151.88040 | 5165 ft | 248 kts | 18° |
| 2026-05-06 01:26 | 7.58836 | 151.88447 | 5782 ft | 258 kts | 17° |
| 2026-05-06 01:26 | 7.60591 | 151.88905 | 6494 ft | 262 kts | 17° |
| 2026-05-06 01:26 | 7.62435 | 151.89373 | 7027 ft | 282 kts | 19° |
| 2026-05-06 01:27 | 7.64343 | 151.89916 | 7766 ft | 288 kts | 15° |
| 2026-05-06 01:27 | 7.66313 | 151.90450 | 8509 ft | 294 kts | 20° |
| 2026-05-06 01:27 | 7.68264 | 151.91063 | 9291 ft | 300 kts | 18° |
| 2026-05-06 01:27 | 7.70279 | 151.91643 | 10311 ft | 302 kts | 15° |
| 2026-05-06 01:28 | 7.72359 | 151.92185 | 10752 ft | 321 kts | 17° |
| 2026-05-06 01:28 | 7.74605 | 151.92785 | 10932 ft | 344 kts | 16° |
| 2026-05-06 01:28 | 7.76986 | 151.93426 | 11218 ft | 362 kts | 18° |
| 2026-05-06 01:28 | 7.79420 | 151.94120 | 11917 ft | 365 kts | 18° |
| 2026-05-06 01:29 | 7.81882 | 151.94829 | 12585 ft | 370 kts | 18° |
| 2026-05-06 01:29 | 7.84369 | 151.95544 | 13300 ft | 373 kts | 18° |
| 2026-05-06 01:29 | 7.86881 | 151.96265 | 13973 ft | 377 kts | 18° |
| 2026-05-06 01:29 | 7.89410 | 151.96987 | 14577 ft | 380 kts | 18° |
| 2026-05-06 01:30 | 7.91973 | 151.97717 | 15118 ft | 385 kts | 16° |
| 2026-05-06 01:30 | 7.94583 | 151.98358 | 15720 ft | 387 kts | 14° |
| 2026-05-06 01:30 | 7.97209 | 151.99040 | 16276 ft | 391 kts | 16° |
| 2026-05-06 01:30 | 7.99852 | 151.99754 | 16836 ft | 395 kts | 12° |
| 2026-05-06 01:31 | 8.02595 | 152.00088 | 17446 ft | 399 kts | 2° |
| 2026-05-06 01:31 | 8.05385 | 152.00145 | 17910 ft | 403 kts | 1° |
| 2026-05-06 01:31 | 8.08226 | 152.00129 | 18280 ft | 410 kts | 0° |
| 2026-05-06 01:31 | 8.11071 | 152.00078 | 18867 ft | 410 kts | 359° |
| 2026-05-06 01:32 | 8.13932 | 152.00029 | 19357 ft | 412 kts | 360° |
| 2026-05-06 01:32 | 8.16818 | 151.99995 | 19748 ft | 418 kts | 360° |
| 2026-05-06 01:32 | 8.19739 | 151.99984 | 20142 ft | 422 kts | 1° |
| 2026-05-06 01:32 | 8.22681 | 151.99986 | 20708 ft | 422 kts | 360° |
| 2026-05-06 01:33 | 8.25591 | 151.99626 | 21210 ft | 425 kts | 343° |
| 2026-05-06 01:33 | 8.28285 | 151.98369 | 21537 ft | 431 kts | 325° |
| 2026-05-06 01:33 | 8.30592 | 151.96492 | 21984 ft | 433 kts | 317° |
| 2026-05-06 01:33 | 8.32860 | 151.94417 | 22382 ft | 435 kts | 316° |
| 2026-05-06 01:34 | 8.35100 | 151.92329 | 22716 ft | 440 kts | 316° |
| 2026-05-06 01:34 | 8.37329 | 151.90243 | 23013 ft | 443 kts | 315° |
| 2026-05-06 01:34 | 8.39601 | 151.88085 | 23330 ft | 449 kts | 316° |
| 2026-05-06 01:34 | 8.41960 | 151.86010 | 23763 ft | 452 kts | 319° |
| 2026-05-06 01:35 | 8.44330 | 151.83938 | 24169 ft | 450 kts | 317° |
| 2026-05-06 01:35 | 8.46679 | 151.81838 | 24435 ft | 453 kts | 318° |
| 2026-05-06 01:35 | 8.49051 | 151.79702 | 24775 ft | 456 kts | 316° |
| 2026-05-06 01:35 | 8.51364 | 151.77500 | 25213 ft | 457 kts | 315° |
| 2026-05-06 01:36 | 8.53666 | 151.75276 | 25576 ft | 459 kts | 316° |
| 2026-05-06 01:36 | 8.56041 | 151.73109 | 25898 ft | 463 kts | 319° |
| 2026-05-06 01:36 | 8.58472 | 151.71009 | 26341 ft | 458 kts | 317° |
| 2026-05-06 01:36 | 8.60847 | 151.68848 | 26531 ft | 461 kts | 316° |
| 2026-05-06 01:37 | 8.63227 | 151.66656 | 26740 ft | 464 kts | 317° |
| 2026-05-06 01:37 | 8.65614 | 151.64438 | 27014 ft | 467 kts | 317° |
| 2026-05-06 01:37 | 8.68030 | 151.62241 | 27312 ft | 468 kts | 317° |
| 2026-05-06 01:37 | 8.70473 | 151.60043 | 27448 ft | 473 kts | 317° |
| 2026-05-06 01:38 | 8.72945 | 151.57821 | 27658 ft | 476 kts | 317° |
| 2026-05-06 01:38 | 8.75419 | 151.55593 | 27953 ft | 477 kts | 316° |
| 2026-05-06 01:38 | 8.77886 | 151.53354 | 28276 ft | 476 kts | 315° |
| 2026-05-06 01:38 | 8.80323 | 151.51079 | 28538 ft | 477 kts | 317° |
| 2026-05-06 01:39 | 8.82782 | 151.48884 | 28771 ft | 479 kts | 317° |
| 2026-05-06 01:39 | 8.85260 | 151.46622 | 29046 ft | 482 kts | 316° |
| 2026-05-06 01:39 | 8.87739 | 151.44351 | 29356 ft | 477 kts | 315° |
| 2026-05-06 01:39 | 8.90185 | 151.42073 | 29481 ft | 478 kts | 316° |
| 2026-05-06 01:40 | 8.95255 | 151.37627 | 29757 ft | 482 kts | 317° |
| 2026-05-06 01:40 | 8.97789 | 151.35380 | 29922 ft | 485 kts | 316° |
| 2026-05-06 01:40 | 9.00271 | 151.33094 | 30186 ft | 481 kts | 315° |
| 2026-05-06 01:41 | 9.02708 | 151.30797 | 30768 ft | 475 kts | 315° |
| 2026-05-06 01:41 | 9.07074 | 151.26752 | 31193 ft | 478 kts | 315° |
| 2026-05-06 01:41 | 9.09537 | 151.24499 | 31399 ft | 476 kts | 315° |
| 2026-05-06 01:42 | 9.12039 | 151.22269 | 31546 ft | 480 kts | 316° |
| 2026-05-06 01:42 | 9.14549 | 151.20052 | 31937 ft | 477 kts | 316° |
| 2026-05-06 01:42 | 9.17021 | 151.17826 | 32334 ft | 474 kts | 316° |
| 2026-05-06 01:42 | 9.19438 | 151.15613 | 32554 ft | 475 kts | 316° |
| 2026-05-06 01:43 | 9.21889 | 151.13362 | 32719 ft | 477 kts | 316° |
| 2026-05-06 01:43 | 9.24366 | 151.11056 | 32966 ft | 478 kts | 316° |
| 2026-05-06 01:43 | 9.26824 | 151.08803 | 33325 ft | 474 kts | 316° |
| 2026-05-06 01:43 | 9.29271 | 151.06557 | 33592 ft | 475 kts | 316° |
| 2026-05-06 01:44 | 9.31689 | 151.04349 | 33846 ft | 475 kts | 316° |
| 2026-05-06 01:44 | 9.34145 | 151.02112 | 34143 ft | 473 kts | 317° |
| 2026-05-06 01:44 | 9.36586 | 150.99890 | 34460 ft | 471 kts | 316° |
| 2026-05-06 01:44 | 9.39020 | 150.97673 | 34736 ft | 470 kts | 316° |
| 2026-05-06 01:45 | 9.41448 | 150.95459 | 34968 ft | 470 kts | 316° |
| 2026-05-06 01:45 | 9.43876 | 150.93243 | 35202 ft | 470 kts | 316° |
| 2026-05-06 01:45 | 9.46297 | 150.91031 | 35479 ft | 469 kts | 316° |
| 2026-05-06 01:45 | 9.48717 | 150.88820 | 35749 ft | 468 kts | 316° |
| 2026-05-06 01:46 | 9.51132 | 150.86614 | 35893 ft | 469 kts | 316° |
| 2026-05-06 01:46 | 9.53564 | 150.84392 | 35888 ft | 471 kts | 316° |
| 2026-05-06 01:46 | 9.58410 | 150.79959 | 35885 ft | 467 kts | 316° |
| 2026-05-06 01:47 | 9.63219 | 150.75556 | 35888 ft | 464 kts | 316° |
| 2026-05-06 01:47 | 9.67998 | 150.71181 | 35889 ft | 462 kts | 316° |
| 2026-05-06 01:48 | 9.72759 | 150.66822 | 35886 ft | 461 kts | 316° |
| 2026-05-06 01:48 | 9.77521 | 150.62459 | 35891 ft | 462 kts | 316° |
| 2026-05-06 01:49 | 9.82304 | 150.58104 | 35892 ft | 463 kts | 317° |
| 2026-05-06 01:49 | 9.87108 | 150.53730 | 35891 ft | 465 kts | 316° |
| 2026-05-06 01:50 | 9.91881 | 150.49343 | 35896 ft | 467 kts | 316° |
| 2026-05-06 01:50 | 9.96700 | 150.44905 | 35885 ft | 469 kts | 315° |
| 2026-05-06 01:51 | 10.01543 | 150.40449 | 35894 ft | 470 kts | 315° |
| 2026-05-06 01:51 | 10.06401 | 150.35983 | 35888 ft | 472 kts | 315° |
| 2026-05-06 01:52 | 10.11282 | 150.31497 | 35890 ft | 474 kts | 315° |
| 2026-05-06 01:52 | 10.16193 | 150.26975 | 35898 ft | 479 kts | 315° |
| 2026-05-06 01:53 | 10.21109 | 150.22446 | 35886 ft | 481 kts | 315° |
| 2026-05-06 01:53 | 10.26076 | 150.17874 | 35889 ft | 481 kts | 315° |
| 2026-05-06 01:54 | 10.31039 | 150.13307 | 35889 ft | 481 kts | 315° |
| 2026-05-06 01:54 | 10.35988 | 150.08752 | 35888 ft | 480 kts | 316° |
| 2026-05-06 01:55 | 10.40928 | 150.04201 | 35887 ft | 478 kts | 316° |
| 2026-05-06 01:55 | 10.45840 | 149.99647 | 35887 ft | 477 kts | 315° |
| 2026-05-06 01:56 | 10.50758 | 149.95121 | 35891 ft | 476 kts | 315° |
| 2026-05-06 01:56 | 10.55629 | 149.90638 | 35885 ft | 474 kts | 315° |
| 2026-05-06 01:57 | 10.60515 | 149.86137 | 35880 ft | 474 kts | 315° |
| 2026-05-06 01:57 | 10.65411 | 149.81617 | 35898 ft | 476 kts | 315° |
| 2026-05-06 01:58 | 10.70317 | 149.77082 | 35895 ft | 478 kts | 316° |
| 2026-05-06 01:58 | 10.75376 | 149.72667 | 35890 ft | 479 kts | 318° |
| 2026-05-06 01:59 | 10.80336 | 149.68145 | 35893 ft | 479 kts | 315° |
| 2026-05-06 01:59 | 10.85186 | 149.63494 | 35889 ft | 480 kts | 314° |
| 2026-05-06 02:00 | 10.90055 | 149.58891 | 35892 ft | 481 kts | 315° |
| 2026-05-06 02:00 | 10.95009 | 149.54283 | 35907 ft | 483 kts | 316° |
| 2026-05-06 02:01 | 10.99996 | 149.49683 | 35896 ft | 485 kts | 318° |
| 2026-05-06 02:01 | 11.05088 | 149.45167 | 35893 ft | 485 kts | 317° |
| 2026-05-06 02:02 | 11.10040 | 149.40511 | 35878 ft | 484 kts | 316° |
| 2026-05-06 02:02 | 11.14961 | 149.35850 | 35892 ft | 482 kts | 317° |
| 2026-05-06 02:03 | 11.19888 | 149.31231 | 35895 ft | 480 kts | 317° |
| 2026-05-06 02:03 | 11.24840 | 149.26678 | 35910 ft | 481 kts | 316° |
| 2026-05-06 02:04 | 11.29745 | 149.22074 | 35895 ft | 479 kts | 315° |
| 2026-05-06 02:04 | 11.34651 | 149.17507 | 35913 ft | 480 kts | 316° |
| 2026-05-06 02:05 | 11.39480 | 149.12828 | 35902 ft | 478 kts | 314° |
| 2026-05-06 02:05 | 11.44384 | 149.08285 | 35901 ft | 476 kts | 319° |
| 2026-05-06 02:06 | 11.49382 | 149.03842 | 35896 ft | 477 kts | 316° |
| 2026-05-06 02:06 | 11.54267 | 148.99277 | 35902 ft | 482 kts | 316° |
| 2026-05-06 02:07 | 11.59245 | 148.94593 | 35885 ft | 491 kts | 315° |
| 2026-05-06 02:07 | 11.64310 | 148.89859 | 35894 ft | 495 kts | 315° |
| 2026-05-06 02:08 | 11.69412 | 148.85106 | 35898 ft | 497 kts | 315° |
| 2026-05-06 02:08 | 11.74441 | 148.80299 | 35881 ft | 488 kts | 309° |
| 2026-05-06 02:09 | 11.78193 | 148.74672 | 35861 ft | 475 kts | 293° |
| 2026-05-06 02:09 | 11.80663 | 148.68478 | 35887 ft | 471 kts | 287° |
| 2026-05-06 02:10 | 11.83033 | 148.62225 | 35911 ft | 478 kts | 288° |
| 2026-05-06 02:10 | 11.85476 | 148.55877 | 35897 ft | 482 kts | 289° |
| 2026-05-06 02:11 | 11.87713 | 148.49436 | 35915 ft | 481 kts | 287° |
| 2026-05-06 02:11 | 11.90186 | 148.43120 | 35877 ft | 476 kts | 290° |
| 2026-05-06 02:12 | 11.92760 | 148.36910 | 35885 ft | 473 kts | 290° |
| 2026-05-06 02:12 | 11.95258 | 148.30708 | 35881 ft | 471 kts | 288° |
| 2026-05-06 02:13 | 11.97691 | 148.24507 | 35904 ft | 470 kts | 288° |
| 2026-05-06 02:13 | 12.00113 | 148.18290 | 35896 ft | 471 kts | 290° |
| 2026-05-06 02:14 | 12.02533 | 148.12060 | 35900 ft | 473 kts | 287° |
| 2026-05-06 02:14 | 12.04983 | 148.05862 | 35886 ft | 476 kts | 292° |
| 2026-05-06 02:15 | 12.07736 | 147.99694 | 35888 ft | 476 kts | 289° |
| 2026-05-06 02:15 | 12.10101 | 147.93367 | 35884 ft | 477 kts | 288° |
| 2026-05-06 02:16 | 12.12408 | 147.86993 | 35902 ft | 475 kts | 288° |
| 2026-05-06 02:16 | 12.14752 | 147.80764 | 35877 ft | 464 kts | 290° |
| 2026-05-06 02:17 | 12.17102 | 147.74618 | 35869 ft | 464 kts | 290° |
| 2026-05-06 02:17 | 12.19330 | 147.68454 | 35898 ft | 460 kts | 283° |
| 2026-05-06 02:18 | 12.21381 | 147.62257 | 35905 ft | 467 kts | 290° |
| 2026-05-06 02:18 | 12.23945 | 147.56104 | 35900 ft | 472 kts | 291° |
| 2026-05-06 02:19 | 12.26514 | 147.49915 | 35899 ft | 473 kts | 289° |
| 2026-05-06 02:19 | 12.28994 | 147.43671 | 35891 ft | 474 kts | 289° |
| 2026-05-06 02:20 | 12.32623 | 147.34274 | 35896 ft | 472 kts | 288° |
| 2026-05-06 02:21 | 12.34976 | 147.28014 | 35900 ft | 470 kts | 289° |
| 2026-05-06 02:21 | 12.37354 | 147.21832 | 35892 ft | 468 kts | 289° |
| 2026-05-06 02:22 | 12.39821 | 147.15677 | 35902 ft | 466 kts | 289° |
| 2026-05-06 02:22 | 12.42173 | 147.09509 | 35892 ft | 464 kts | 288° |
| 2026-05-06 02:23 | 12.44514 | 147.03350 | 35901 ft | 464 kts | 289° |
| 2026-05-06 02:23 | 12.46866 | 146.97201 | 35899 ft | 463 kts | 289° |
| 2026-05-06 02:24 | 12.49217 | 146.91054 | 35902 ft | 464 kts | 290° |
| 2026-05-06 02:24 | 12.51578 | 146.84908 | 35897 ft | 465 kts | 289° |
| 2026-05-06 02:25 | 12.53940 | 146.78746 | 35898 ft | 465 kts | 290° |
| 2026-05-06 02:25 | 12.55903 | 146.73613 | 35893 ft | 465 kts | 289° |
| 2026-05-06 02:26 | 12.58283 | 146.67448 | 35894 ft | 466 kts | 291° |
| 2026-05-06 02:26 | 12.61275 | 146.60600 | 35912 ft | 461 kts | 289° |
| 2026-05-06 02:27 | 12.63495 | 146.54468 | 35898 ft | 458 kts | 288° |
| 2026-05-06 02:27 | 12.65693 | 146.48347 | 35894 ft | 458 kts | 289° |
| 2026-05-06 02:28 | 12.67953 | 146.42241 | 35902 ft | 458 kts | 290° |
| 2026-05-06 02:28 | 12.70249 | 146.36146 | 35776 ft | 461 kts | 290° |
| 2026-05-06 02:28 | 12.71419 | 146.33058 | 35092 ft | 467 kts | 290° |
| 2026-05-06 02:29 | 12.72592 | 146.29968 | 34453 ft | 461 kts | 290° |
| 2026-05-06 02:29 | 12.73744 | 146.26932 | 33683 ft | 456 kts | 291° |
| 2026-05-06 02:29 | 12.74896 | 146.23899 | 32866 ft | 458 kts | 290° |
| 2026-05-06 02:29 | 12.76052 | 146.20856 | 32072 ft | 458 kts | 291° |
| 2026-05-06 02:30 | 12.77201 | 146.17825 | 31496 ft | 454 kts | 290° |
| 2026-05-06 02:30 | 12.78339 | 146.14818 | 30917 ft | 451 kts | 290° |
| 2026-05-06 02:30 | 12.79473 | 146.11821 | 30368 ft | 448 kts | 290° |
| 2026-05-06 02:30 | 12.80579 | 146.08897 | 29808 ft | 445 kts | 290° |
| 2026-05-06 02:31 | 12.81693 | 146.05950 | 29189 ft | 441 kts | 290° |
| 2026-05-06 02:31 | 12.82797 | 146.03035 | 28613 ft | 437 kts | 291° |
| 2026-05-06 02:31 | 12.83888 | 146.00151 | 28035 ft | 432 kts | 291° |
| 2026-05-06 02:31 | 12.84906 | 145.97269 | 27487 ft | 428 kts | 287° |
| 2026-05-06 02:32 | 12.85787 | 145.94364 | 26941 ft | 424 kts | 287° |
| 2026-05-06 02:32 | 12.86773 | 145.91528 | 26414 ft | 421 kts | 290° |
| 2026-05-06 02:32 | 12.87490 | 145.89684 | 26060 ft | 419 kts | 291° |
| 2026-05-06 02:32 | 12.88605 | 145.86930 | 25514 ft | 417 kts | 291° |
| 2026-05-06 02:33 | 12.90088 | 145.83268 | 24785 ft | 415 kts | 292° |
| 2026-05-06 02:33 | 12.90457 | 145.82346 | 24604 ft | 414 kts | 291° |
| 2026-05-06 02:34 | 12.93979 | 145.73260 | 22709 ft | 410 kts | 291° |
| 2026-05-06 02:34 | 12.95009 | 145.70545 | 22164 ft | 408 kts | 291° |
| 2026-05-06 02:34 | 12.96033 | 145.67842 | 21623 ft | 405 kts | 292° |
| 2026-05-06 02:34 | 12.97049 | 145.65151 | 21061 ft | 405 kts | 292° |
| 2026-05-06 02:35 | 12.98063 | 145.62465 | 20534 ft | 403 kts | 292° |
| 2026-05-06 02:35 | 12.99076 | 145.59785 | 19988 ft | 403 kts | 292° |
| 2026-05-06 02:35 | 13.00087 | 145.57106 | 19454 ft | 402 kts | 291° |
| 2026-05-06 02:35 | 13.01093 | 145.54432 | 18909 ft | 402 kts | 291° |
| 2026-05-06 02:36 | 13.02103 | 145.51754 | 18369 ft | 403 kts | 292° |
| 2026-05-06 02:36 | 13.03114 | 145.49071 | 17768 ft | 404 kts | 292° |
| 2026-05-06 02:36 | 13.04126 | 145.46383 | 17192 ft | 403 kts | 292° |
| 2026-05-06 02:36 | 13.05135 | 145.43704 | 16653 ft | 402 kts | 292° |
| 2026-05-06 02:37 | 13.06127 | 145.41068 | 16118 ft | 400 kts | 292° |
| 2026-05-06 02:37 | 13.07127 | 145.38409 | 15588 ft | 399 kts | 292° |
| 2026-05-06 02:37 | 13.08123 | 145.35761 | 15050 ft | 398 kts | 292° |
| 2026-05-06 02:37 | 13.09119 | 145.33111 | 14510 ft | 397 kts | 292° |
| 2026-05-06 02:38 | 13.10112 | 145.30471 | 13973 ft | 396 kts | 292° |
| 2026-05-06 02:38 | 13.11102 | 145.27831 | 13393 ft | 396 kts | 292° |
| 2026-05-06 02:38 | 13.12089 | 145.25202 | 12819 ft | 394 kts | 292° |
| 2026-05-06 02:38 | 13.13072 | 145.22582 | 12250 ft | 391 kts | 292° |
| 2026-05-06 02:39 | 13.14047 | 145.19978 | 11722 ft | 389 kts | 292° |
| 2026-05-06 02:39 | 13.15011 | 145.17402 | 11211 ft | 385 kts | 292° |
| 2026-05-06 02:39 | 13.15971 | 145.14843 | 10732 ft | 382 kts | 293° |
| 2026-05-06 02:39 | 13.16909 | 145.12336 | 10540 ft | 370 kts | 292° |
| 2026-05-06 02:40 | 13.17819 | 145.09905 | 10363 ft | 359 kts | 292° |
| 2026-05-06 02:40 | 13.18702 | 145.07549 | 10211 ft | 348 kts | 293° |
| 2026-05-06 02:40 | 13.19556 | 145.05267 | 10051 ft | 337 kts | 292° |
| 2026-05-06 02:40 | 13.20384 | 145.03050 | 9898 ft | 329 kts | 293° |
| 2026-05-06 02:41 | 13.21178 | 145.00925 | 9845 ft | 315 kts | 292° |
| 2026-05-06 02:41 | 13.21959 | 144.98837 | 9401 ft | 317 kts | 292° |
| 2026-05-06 02:41 | 13.22749 | 144.96724 | 9009 ft | 318 kts | 292° |
| 2026-05-06 02:41 | 13.23543 | 144.94601 | 8634 ft | 318 kts | 292° |
| 2026-05-06 02:42 | 13.24333 | 144.92486 | 8281 ft | 318 kts | 293° |
| 2026-05-06 02:42 | 13.25122 | 144.90370 | 7930 ft | 317 kts | 293° |
| 2026-05-06 02:42 | 13.25905 | 144.88272 | 7582 ft | 310 kts | 293° |
| 2026-05-06 02:42 | 13.26663 | 144.86235 | 7238 ft | 302 kts | 293° |
| 2026-05-06 02:43 | 13.27401 | 144.84251 | 6946 ft | 293 kts | 293° |
| 2026-05-06 02:43 | 13.28121 | 144.82322 | 6635 ft | 287 kts | 294° |
| 2026-05-06 02:43 | 13.28830 | 144.80428 | 6326 ft | 282 kts | 293° |
| 2026-05-06 02:43 | 13.29524 | 144.78562 | 6029 ft | 277 kts | 293° |
| 2026-05-06 02:44 | 13.30214 | 144.76709 | 5781 ft | 282 kts | 292° |
| 2026-05-06 02:44 | 13.30535 | 144.74700 | 5551 ft | 290 kts | 266° |
| 2026-05-06 02:44 | 13.30430 | 144.72602 | 5353 ft | 302 kts | 271° |
| 2026-05-06 02:44 | 13.30625 | 144.70472 | 5231 ft | 291 kts | 282° |
| 2026-05-06 02:45 | 13.31114 | 144.68536 | 5117 ft | 270 kts | 293° |
| 2026-05-06 02:45 | 13.31804 | 144.66831 | 4998 ft | 248 kts | 301° |
| 2026-05-06 02:45 | 13.32611 | 144.65359 | 4863 ft | 225 kts | 307° |
| 2026-05-06 02:45 | 13.33453 | 144.64096 | 4723 ft | 205 kts | 314° |
| 2026-05-06 02:46 | 13.34324 | 144.63014 | 4698 ft | 193 kts | 320° |
| 2026-05-06 02:46 | 13.35294 | 144.61995 | 4555 ft | 203 kts | 324° |
| 2026-05-06 02:46 | 13.36376 | 144.61064 | 4403 ft | 201 kts | 334° |
| 2026-05-06 02:46 | 13.37552 | 144.60327 | 4201 ft | 193 kts | 345° |
| 2026-05-06 02:47 | 13.38772 | 144.60206 | 3942 ft | 164 kts | 34° |
| 2026-05-06 02:47 | 13.39500 | 144.60949 | 3828 ft | 148 kts | 62° |
| 2026-05-06 02:47 | 13.40046 | 144.61842 | 3636 ft | 149 kts | 66° |
| 2026-05-06 02:47 | 13.40593 | 144.62744 | 3444 ft | 146 kts | 63° |
| 2026-05-06 02:48 | 13.41116 | 144.63642 | 3273 ft | 147 kts | 66° |
| 2026-05-06 02:48 | 13.41595 | 144.64583 | 3085 ft | 148 kts | 68° |
| 2026-05-06 02:48 | 13.42065 | 144.65523 | 2881 ft | 145 kts | 70° |
| 2026-05-06 02:48 | 13.42505 | 144.66474 | 2724 ft | 149 kts | 70° |
| 2026-05-06 02:49 | 13.42933 | 144.67454 | 2526 ft | 150 kts | 69° |
| 2026-05-06 02:49 | 13.43366 | 144.68409 | 2321 ft | 145 kts | 71° |
| 2026-05-06 02:49 | 13.43750 | 144.69311 | 2170 ft | 130 kts | 68° |
| 2026-05-06 02:49 | 13.44194 | 144.70208 | 1977 ft | 151 kts | 66° |
| 2026-05-06 02:50 | 13.44650 | 144.71261 | 1782 ft | 171 kts | 69° |
| 2026-05-06 02:50 | 13.45146 | 144.72353 | 1522 ft | 164 kts | 68° |
| 2026-05-06 02:50 | 13.45619 | 144.73372 | 1355 ft | 152 kts | 68° |
| 2026-05-06 02:50 | 13.46060 | 144.74353 | 1142 ft | 145 kts | 68° |
| 2026-05-06 02:51 | 13.46480 | 144.75287 | 958 ft | 143 kts | 68° |
| 2026-05-06 02:51 | 13.46910 | 144.76226 | 791 ft | 142 kts | 68° |
| 2026-05-06 02:51 | 13.47293 | 144.77113 | 591 ft | 129 kts | 69° |
| 2026-05-06 02:51 | 13.47702 | 144.77928 | 406 ft | 126 kts | 63° |
| 2026-05-06 02:52 | 13.48051 | 144.78743 | 294 ft | 119 kts | 65° |
| 2026-05-06 02:52 | 13.48357 | 144.79416 | 279 ft | 84 kts | 64° |
| 2026-05-06 02:52 | 13.48496 | 144.79712 | 284 ft | 29 kts | 64° |
| 2026-05-06 02:52 | 13.48580 | 144.79906 | 283 ft | 28 kts | 66° |
| 2026-05-06 02:53 | 13.48648 | 144.80032 | 287 ft | 14 kts | 47° |
| 2026-05-06 02:53 | 13.48738 | 144.80042 | 293 ft | 13 kts | 5° |
| 2026-05-06 02:53 | 13.48798 | 144.80108 | 292 ft | 13 kts | 64° |
| 2026-05-06 02:53 | 13.48837 | 144.80189 | 293 ft | 13 kts | 64° |
| 2026-05-06 02:54 | 13.48899 | 144.80238 | 294 ft | 12 kts | 20° |
| 2026-05-06 02:54 | 13.48941 | 144.80312 | 295 ft | 12 kts | 62° |
| 2026-05-06 02:54 | 13.48980 | 144.80386 | 296 ft | 12 kts | 62° |
| 2026-05-06 02:54 | 13.49026 | 144.80450 | 298 ft | 11 kts | 10° |
| 2026-05-06 02:55 | 13.49090 | 144.80419 | 296 ft | 9 kts | 330° |
| 2026-05-06 02:55 | 13.49098 | 144.80414 | 297 ft | 0 kts | 330° |